Legend Of The Seas — C6SL5 — position and weather

sailwx.info

Track history (hours):
 
Tides and Currents Weather Stations Pressure Air Temp Water Temp Dewpoint Dewpoint Depression Visibility Wind Speed Wind Dir Waves Ship Positions

Legend Of The Seas

Operator: Royal Caribbean Cruises Ltd

Last reported at 2016-Jun-26 11:17 UTC. Time now 2016-Jun-26 11:45 UTC.
Position N 34°07' E 125°28'.

Type: Passenger vessel. MMSI: 311378000.

Date/timePositionNaut miles runAvg speedWind from/ knotsBaromVisibWave heightAir tempDewpointWater temp
2016-Jun-26 11:17N 34°07' E 125°28'5518.1
2016-Jun-26 08:16N 34°52' E 124°50'12919.3
2016-Jun-26 01:33N 36°47' E 123°39'1918.7
2016-Jun-26 00:33N 37°04' E 123°28'5518.5
2016-Jun-25 21:33N 37°45' E 122°40'2020.3
2016-Jun-25 20:33N 37°55' E 122°18'2019.7
2016-Jun-25 19:34N 38°04' E 121°56'1919.4
2016-Jun-25 18:34N 38°13' E 121°35'1919.0
2016-Jun-25 17:33N 38°24' E 121°14'1817.7
2016-Jun-25 16:34N 38°33' E 120°55'1716.7
2016-Jun-25 15:34N 38°36' E 120°34'2019.6
2016-Jun-25 14:34N 38°38' E 120°09'2019.8
2016-Jun-25 13:34N 38°41' E 119°44'2019.6
2016-Jun-25 12:33N 38°45' E 119°19'72 5.0
2016-Jun-24 22:21N 38°59' E 117°49'4 5.5
2016-Jun-24 21:33N 38°57' E 117°54'4013.5
2016-Jun-24 18:33N 38°48' E 118°45'1414.0
2016-Jun-24 17:33N 38°47' E 119°03'1414.3
2016-Jun-24 16:33N 38°45' E 119°21'1515.0
2016-Jun-24 15:33N 38°43' E 119°40'1514.6
2016-Jun-24 14:33N 38°42' E 119°59'1414.2
2016-Jun-24 13:33N 38°41' E 120°17'1414.0
2016-Jun-24 12:33N 38°39' E 120°35'1313.5
2016-Jun-24 11:33N 38°37' E 120°52'1514.7
2016-Jun-24 10:34N 38°31' E 121°09'1717.3
2016-Jun-24 09:34N 38°23' E 121°28'1817.6
2016-Jun-24 08:34N 38°13' E 121°47'1717.4
2016-Jun-24 07:34N 38°04' E 122°06'  
2016-Jun-21 02:33N 36°46' E 123°40'2119.0
2016-Jun-21 01:28N 37°04' E 123°28'1718.4
2016-Jun-21 00:33N 37°19' E 123°17'1717.4
2016-Jun-20 23:32N 37°33' E 123°04'1817.3
2016-Jun-20 22:28N 37°42' E 122°44'1617.8
2016-Jun-20 21:33N 37°51' E 122°26'1918.5
2016-Jun-20 20:33N 37°60' E 122°05'2418.5
2016-Jun-20 19:15N 38°11' E 121°39'1418.7
2016-Jun-20 18:30N 38°20' E 121°25'2217.9
2016-Jun-20 17:17N 38°31' E 121°01'15017.2
2016-Jun-20 08:34N 38°57' E 117°52'2 2.3
2016-Jun-20 07:31N 38°59' E 117°49'0 0.0
2016-Jun-20 06:31N 38°59' E 117°49'0 0.0
2016-Jun-20 05:31N 38°59' E 117°49'0 0.0
2016-Jun-20 04:31N 38°59' E 117°49'0 0.0
2016-Jun-20 03:31N 38°59' E 117°49'0 0.0
2016-Jun-20 01:07N 38°59' E 117°49'0 0.0
2016-Jun-20 00:31N 38°59' E 117°49'0 0.0
2016-Jun-19 23:31N 38°59' E 117°49'0 0.0
2016-Jun-19 22:34N 38°58' E 117°49'10 9.4
2016-Jun-19 21:33N 38°56' E 118°01'5217.0
2016-Jun-19 18:28N 38°48' E 119°07'1819.6
2016-Jun-19 17:33N 38°46' E 119°30'2119.8
2016-Jun-19 16:31N 38°44' E 119°56'2419.9
2016-Jun-19 15:19N 38°40' E 120°27'3518.8
2016-Jun-19 13:26N 38°31' E 121°10'1919.8
2016-Jun-19 12:29N 38°20' E 121°30'1818.8
2016-Jun-19 11:32N 38°13' E 121°51'2619.3
2016-Jun-19 10:10N 37°59' E 122°19'1319.8
2016-Jun-19 09:30N 37°52' E 122°34'1919.9
2016-Jun-19 08:34N 37°42' E 122°54'2019.5
2016-Jun-19 07:33N 37°31' E 123°14'2019.5
2016-Jun-19 06:33N 37°14' E 123°25'1919.4
2016-Jun-19 05:33N 36°56' E 123°35'2019.3
2016-Jun-19 04:31N 36°38' E 123°47'230 5.4
2016-Jun-17 09:32N 33°35' E 126°37'168 8.4
2016-Jun-16 13:33N 36°15' E 125°33'  
Track history (hours):
 
Tides and Currents Weather Stations Pressure Air Temp Water Temp Dewpoint Dewpoint Depression Visibility Wind Speed Wind Dir Waves Ship Positions

Legend Of The Seas

Operator: Royal Caribbean Cruises Ltd

Last reported at 2016-Jun-26 11:17 UTC. Time now 2016-Jun-26 11:45 UTC.
Position N 34°07' E 125°28'.

Type: Passenger vessel. MMSI: 311378000.

Date/timePositionNaut miles runAvg speedWind from/ knotsBaromVisibWave heightAir tempDewpointWater temp
2016-Jun-26 11:17N 34°07' E 125°28'5518.1
2016-Jun-26 08:16N 34°52' E 124°50'12919.3
2016-Jun-26 01:33N 36°47' E 123°39'1918.7
2016-Jun-26 00:33N 37°04' E 123°28'5518.5
2016-Jun-25 21:33N 37°45' E 122°40'2020.3
2016-Jun-25 20:33N 37°55' E 122°18'2019.7
2016-Jun-25 19:34N 38°04' E 121°56'1919.4
2016-Jun-25 18:34N 38°13' E 121°35'1919.0
2016-Jun-25 17:33N 38°24' E 121°14'1817.7
2016-Jun-25 16:34N 38°33' E 120°55'1716.7
2016-Jun-25 15:34N 38°36' E 120°34'2019.6
2016-Jun-25 14:34N 38°38' E 120°09'2019.8
2016-Jun-25 13:34N 38°41' E 119°44'2019.6
2016-Jun-25 12:33N 38°45' E 119°19'72 5.0
2016-Jun-24 22:21N 38°59' E 117°49'4 5.5
2016-Jun-24 21:33N 38°57' E 117°54'4013.5
2016-Jun-24 18:33N 38°48' E 118°45'1414.0
2016-Jun-24 17:33N 38°47' E 119°03'1414.3
2016-Jun-24 16:33N 38°45' E 119°21'1515.0
2016-Jun-24 15:33N 38°43' E 119°40'1514.6
2016-Jun-24 14:33N 38°42' E 119°59'1414.2
2016-Jun-24 13:33N 38°41' E 120°17'1414.0
2016-Jun-24 12:33N 38°39' E 120°35'1313.5
2016-Jun-24 11:33N 38°37' E 120°52'1514.7
2016-Jun-24 10:34N 38°31' E 121°09'1717.3
2016-Jun-24 09:34N 38°23' E 121°28'1817.6
2016-Jun-24 08:34N 38°13' E 121°47'1717.4
2016-Jun-24 07:34N 38°04' E 122°06'  
2016-Jun-21 02:33N 36°46' E 123°40'2119.0
2016-Jun-21 01:28N 37°04' E 123°28'1718.4
2016-Jun-21 00:33N 37°19' E 123°17'1717.4
2016-Jun-20 23:32N 37°33' E 123°04'1817.3
2016-Jun-20 22:28N 37°42' E 122°44'1617.8
2016-Jun-20 21:33N 37°51' E 122°26'1918.5
2016-Jun-20 20:33N 37°60' E 122°05'2418.5
2016-Jun-20 19:15N 38°11' E 121°39'1418.7
2016-Jun-20 18:30N 38°20' E 121°25'2217.9
2016-Jun-20 17:17N 38°31' E 121°01'15017.2
2016-Jun-20 08:34N 38°57' E 117°52'2 2.3
2016-Jun-20 07:31N 38°59' E 117°49'0 0.0
2016-Jun-20 06:31N 38°59' E 117°49'0 0.0
2016-Jun-20 05:31N 38°59' E 117°49'0 0.0
2016-Jun-20 04:31N 38°59' E 117°49'0 0.0
2016-Jun-20 03:31N 38°59' E 117°49'0 0.0
2016-Jun-20 01:07N 38°59' E 117°49'0 0.0
2016-Jun-20 00:31N 38°59' E 117°49'0 0.0
2016-Jun-19 23:31N 38°59' E 117°49'0 0.0
2016-Jun-19 22:34N 38°58' E 117°49'10 9.4
2016-Jun-19 21:33N 38°56' E 118°01'5217.0
2016-Jun-19 18:28N 38°48' E 119°07'1819.6
2016-Jun-19 17:33N 38°46' E 119°30'2119.8
2016-Jun-19 16:31N 38°44' E 119°56'2419.9
2016-Jun-19 15:19N 38°40' E 120°27'3518.8
2016-Jun-19 13:26N 38°31' E 121°10'1919.8
2016-Jun-19 12:29N 38°20' E 121°30'1818.8
2016-Jun-19 11:32N 38°13' E 121°51'2619.3
2016-Jun-19 10:10N 37°59' E 122°19'1319.8
2016-Jun-19 09:30N 37°52' E 122°34'1919.9
2016-Jun-19 08:34N 37°42' E 122°54'2019.5
2016-Jun-19 07:33N 37°31' E 123°14'2019.5
2016-Jun-19 06:33N 37°14' E 123°25'1919.4
2016-Jun-19 05:33N 36°56' E 123°35'2019.3
2016-Jun-19 04:31N 36°38' E 123°47'230 5.4
2016-Jun-17 09:32N 33°35' E 126°37'168 8.4
2016-Jun-16 13:33N 36°15' E 125°33'  

Dump ship's entire track history